sensor_id;sensor_type;location;lat;lon;timestamp;pressure;altitude;pressure_sealevel;temperature;humidity
21129;BME280;10722;51.910;8.352;2024-03-17T00:02:34;101638.06;;;6.03;91.12
21129;BME280;10722;51.910;8.352;2024-03-17T00:05:19;101658.94;;;5.93;92.21
21129;BME280;10722;51.910;8.352;2024-03-17T00:08:04;101662.53;;;5.97;92.87
21129;BME280;10722;51.910;8.352;2024-03-17T00:10:54;101658.81;;;6.08;93.08
21129;BME280;10722;51.910;8.352;2024-03-17T00:13:39;101660.16;;;6.00;93.42
21129;BME280;10722;51.910;8.352;2024-03-17T00:16:23;101651.94;;;6.07;93.69
21129;BME280;10722;51.910;8.352;2024-03-17T00:19:07;101651.03;;;5.90;93.54
21129;BME280;10722;51.910;8.352;2024-03-17T00:21:52;101641.50;;;6.04;94.13
21129;BME280;10722;51.910;8.352;2024-03-17T00:24:36;101634.81;;;5.91;93.86
21129;BME280;10722;51.910;8.352;2024-03-17T00:27:20;101628.34;;;5.98;93.31
21129;BME280;10722;51.910;8.352;2024-03-17T00:30:06;101618.38;;;5.88;92.75
21129;BME280;10722;51.910;8.352;2024-03-17T00:32:50;101616.53;;;5.85;92.66
21129;BME280;10722;51.910;8.352;2024-03-17T00:35:34;101606.09;;;5.82;92.13
21129;BME280;10722;51.910;8.352;2024-03-17T00:38:18;101611.66;;;5.73;92.27
21129;BME280;10722;51.910;8.352;2024-03-17T00:41:04;101613.28;;;5.55;92.45
21129;BME280;10722;51.910;8.352;2024-03-17T00:43:48;101612.00;;;5.47;92.85
21129;BME280;10722;51.910;8.352;2024-03-17T00:46:32;101618.00;;;5.47;93.86
21129;BME280;10722;51.910;8.352;2024-03-17T00:49:16;101629.16;;;5.31;94.44
21129;BME280;10722;51.910;8.352;2024-03-17T00:52:00;101641.00;;;5.29;95.35
21129;BME280;10722;51.910;8.352;2024-03-17T00:54:46;101649.50;;;5.28;96.40
21129;BME280;10722;51.910;8.352;2024-03-17T00:57:31;101655.03;;;5.20;97.24
21129;BME280;10722;51.910;8.352;2024-03-17T01:00:16;101644.94;;;5.23;97.93
21129;BME280;10722;51.910;8.352;2024-03-17T01:03:00;101644.06;;;5.22;97.59
21129;BME280;10722;51.910;8.352;2024-03-17T01:05:45;101638.22;;;5.25;98.25
21129;BME280;10722;51.910;8.352;2024-03-17T01:08:30;101640.44;;;5.19;98.61
21129;BME280;10722;51.910;8.352;2024-03-17T01:11:15;101644.31;;;5.27;98.73
21129;BME280;10722;51.910;8.352;2024-03-17T01:13:59;101631.13;;;5.21;98.56
21129;BME280;10722;51.910;8.352;2024-03-17T01:16:43;101628.09;;;5.28;98.83
21129;BME280;10722;51.910;8.352;2024-03-17T01:19:27;101624.53;;;5.09;98.05
21129;BME280;10722;51.910;8.352;2024-03-17T01:22:11;101612.09;;;5.01;97.91
21129;BME280;10722;51.910;8.352;2024-03-17T01:24:55;101601.69;;;4.98;98.07
21129;BME280;10722;51.910;8.352;2024-03-17T01:27:39;101611.22;;;5.00;98.50
21129;BME280;10722;51.910;8.352;2024-03-17T01:30:23;101607.47;;;4.93;98.54
21129;BME280;10722;51.910;8.352;2024-03-17T01:33:07;101605.19;;;4.83;98.60
21129;BME280;10722;51.910;8.352;2024-03-17T01:35:51;101601.56;;;4.80;99.08
21129;BME280;10722;51.910;8.352;2024-03-17T01:38:35;101610.03;;;4.93;99.42
21129;BME280;10722;51.910;8.352;2024-03-17T01:41:20;101590.28;;;4.92;99.11
21129;BME280;10722;51.910;8.352;2024-03-17T01:44:04;101587.94;;;4.81;99.34
21129;BME280;10722;51.910;8.352;2024-03-17T01:46:49;101596.03;;;4.72;99.49
21129;BME280;10722;51.910;8.352;2024-03-17T01:49:33;101592.13;;;4.79;100.00
21129;BME280;10722;51.910;8.352;2024-03-17T01:52:19;101581.81;;;4.62;100.00
21129;BME280;10722;51.910;8.352;2024-03-17T01:55:05;101583.69;;;4.50;100.00
21129;BME280;10722;51.910;8.352;2024-03-17T01:57:50;101587.00;;;4.33;100.00
21129;BME280;10722;51.910;8.352;2024-03-17T02:00:36;101587.00;;;4.33;100.00
21129;BME280;10722;51.910;8.352;2024-03-17T02:03:20;101590.59;;;4.36;100.00
21129;BME280;10722;51.910;8.352;2024-03-17T02:06:04;101592.28;;;4.36;100.00
21129;BME280;10722;51.910;8.352;2024-03-17T02:08:50;101586.94;;;4.31;100.00
21129;BME280;10722;51.910;8.352;2024-03-17T02:11:34;101580.78;;;4.44;100.00
21129;BME280;10722;51.910;8.352;2024-03-17T02:14:18;101578.00;;;4.39;100.00
21129;BME280;10722;51.910;8.352;2024-03-17T02:17:02;101576.91;;;4.36;100.00
21129;BME280;10722;51.910;8.352;2024-03-17T02:19:46;101582.69;;;4.32;100.00
21129;BME280;10722;51.910;8.352;2024-03-17T02:22:30;101578.34;;;4.16;100.00
21129;BME280;10722;51.910;8.352;2024-03-17T02:25:14;101574.03;;;4.15;100.00
21129;BME280;10722;51.910;8.352;2024-03-17T02:27:58;101580.81;;;4.29;100.00
21129;BME280;10722;51.910;8.352;2024-03-17T02:30:42;101577.59;;;4.17;100.00
21129;BME280;10722;51.910;8.352;2024-03-17T02:33:27;101575.88;;;4.32;100.00
21129;BME280;10722;51.910;8.352;2024-03-17T02:36:12;101578.88;;;4.25;100.00
21129;BME280;10722;51.910;8.352;2024-03-17T02:38:56;101568.63;;;4.25;100.00
21129;BME280;10722;51.910;8.352;2024-03-17T02:41:43;101581.09;;;4.19;100.00
21129;BME280;10722;51.910;8.352;2024-03-17T02:44:29;101577.91;;;4.23;100.00
21129;BME280;10722;51.910;8.352;2024-03-17T02:47:14;101576.66;;;4.16;100.00
21129;BME280;10722;51.910;8.352;2024-03-17T02:49:58;101574.28;;;4.19;100.00
21129;BME280;10722;51.910;8.352;2024-03-17T02:52:42;101573.75;;;4.25;100.00
21129;BME280;10722;51.910;8.352;2024-03-17T02:55:26;101556.38;;;4.04;100.00
21129;BME280;10722;51.910;8.352;2024-03-17T02:58:10;101564.50;;;3.97;100.00
21129;BME280;10722;51.910;8.352;2024-03-17T03:00:54;101568.72;;;3.82;100.00
21129;BME280;10722;51.910;8.352;2024-03-17T03:04:10;101570.22;;;3.93;100.00
21129;BME280;10722;51.910;8.352;2024-03-17T03:06:54;101571.47;;;3.85;100.00
21129;BME280;10722;51.910;8.352;2024-03-17T03:09:38;101575.72;;;3.85;100.00
21129;BME280;10722;51.910;8.352;2024-03-17T03:12:22;101574.13;;;3.87;100.00
21129;BME280;10722;51.910;8.352;2024-03-17T03:15:07;101577.75;;;3.90;100.00
21129;BME280;10722;51.910;8.352;2024-03-17T03:17:51;101575.09;;;3.89;100.00
21129;BME280;10722;51.910;8.352;2024-03-17T03:20:35;101578.44;;;3.88;100.00
21129;BME280;10722;51.910;8.352;2024-03-17T03:23:19;101584.25;;;3.85;100.00
21129;BME280;10722;51.910;8.352;2024-03-17T03:26:04;101569.47;;;3.94;100.00
21129;BME280;10722;51.910;8.352;2024-03-17T03:28:48;101571.63;;;3.88;100.00
21129;BME280;10722;51.910;8.352;2024-03-17T03:31:32;101567.84;;;3.96;100.00
21129;BME280;10722;51.910;8.352;2024-03-17T03:34:17;101561.84;;;3.66;100.00
21129;BME280;10722;51.910;8.352;2024-03-17T03:37:01;101559.28;;;3.81;100.00
21129;BME280;10722;51.910;8.352;2024-03-17T03:39:45;101568.56;;;3.79;100.00
21129;BME280;10722;51.910;8.352;2024-03-17T03:42:29;101572.34;;;3.71;100.00
21129;BME280;10722;51.910;8.352;2024-03-17T03:45:13;101574.13;;;3.72;100.00
21129;BME280;10722;51.910;8.352;2024-03-17T03:47:57;101570.13;;;3.62;100.00
21129;BME280;10722;51.910;8.352;2024-03-17T03:50:43;101576.47;;;3.69;100.00
21129;BME280;10722;51.910;8.352;2024-03-17T03:53:27;101571.63;;;3.73;100.00
21129;BME280;10722;51.910;8.352;2024-03-17T03:56:11;101575.00;;;3.72;100.00
21129;BME280;10722;51.910;8.352;2024-03-17T03:58:55;101578.16;;;3.68;100.00
21129;BME280;10722;51.910;8.352;2024-03-17T04:01:39;101577.16;;;3.51;100.00
21129;BME280;10722;51.910;8.352;2024-03-17T04:04:23;101581.16;;;3.61;100.00
21129;BME280;10722;51.910;8.352;2024-03-17T04:07:07;101581.50;;;3.52;100.00
21129;BME280;10722;51.910;8.352;2024-03-17T04:09:51;101593.03;;;3.46;100.00
21129;BME280;10722;51.910;8.352;2024-03-17T04:12:35;101593.91;;;3.46;100.00
21129;BME280;10722;51.910;8.352;2024-03-17T04:15:20;101592.34;;;3.48;100.00
21129;BME280;10722;51.910;8.352;2024-03-17T04:18:04;101598.50;;;3.52;100.00
21129;BME280;10722;51.910;8.352;2024-03-17T04:20:49;101595.88;;;3.50;100.00
21129;BME280;10722;51.910;8.352;2024-03-17T04:23:33;101596.53;;;3.61;100.00
21129;BME280;10722;51.910;8.352;2024-03-17T04:26:17;101592.09;;;3.58;100.00
21129;BME280;10722;51.910;8.352;2024-03-17T04:29:01;101581.16;;;3.61;100.00
21129;BME280;10722;51.910;8.352;2024-03-17T04:31:45;101581.50;;;3.52;100.00
21129;BME280;10722;51.910;8.352;2024-03-17T04:34:30;101588.19;;;3.50;100.00
21129;BME280;10722;51.910;8.352;2024-03-17T04:37:15;101583.63;;;3.59;100.00
21129;BME280;10722;51.910;8.352;2024-03-17T04:39:59;101585.31;;;3.59;100.00
21129;BME280;10722;51.910;8.352;2024-03-17T04:42:44;101592.63;;;3.68;100.00
21129;BME280;10722;51.910;8.352;2024-03-17T04:45:28;101586.00;;;3.56;100.00
21129;BME280;10722;51.910;8.352;2024-03-17T04:48:12;101586.00;;;3.56;100.00
21129;BME280;10722;51.910;8.352;2024-03-17T04:50:56;101593.84;;;3.59;100.00
21129;BME280;10722;51.910;8.352;2024-03-17T04:53:39;101593.25;;;3.64;100.00
21129;BME280;10722;51.910;8.352;2024-03-17T04:56:24;101591.25;;;3.73;100.00
21129;BME280;10722;51.910;8.352;2024-03-17T04:59:07;101587.28;;;3.78;100.00
21129;BME280;10722;51.910;8.352;2024-03-17T05:01:52;101595.31;;;3.69;100.00
21129;BME280;10722;51.910;8.352;2024-03-17T05:04:36;101585.50;;;3.77;100.00
21129;BME280;10722;51.910;8.352;2024-03-17T05:07:20;101583.75;;;3.76;100.00
21129;BME280;10722;51.910;8.352;2024-03-17T05:10:05;101585.84;;;3.68;100.00
21129;BME280;10722;51.910;8.352;2024-03-17T05:12:50;101585.41;;;3.75;100.00
21129;BME280;10722;51.910;8.352;2024-03-17T05:15:36;101587.09;;;3.75;100.00
21129;BME280;10722;51.910;8.352;2024-03-17T05:18:20;101585.66;;;3.80;100.00
21129;BME280;10722;51.910;8.352;2024-03-17T05:21:05;101586.47;;;3.79;100.00
21129;BME280;10722;51.910;8.352;2024-03-17T05:23:50;101593.44;;;3.81;100.00
21129;BME280;10722;51.910;8.352;2024-03-17T05:26:34;101597.41;;;3.91;100.00
21129;BME280;10722;51.910;8.352;2024-03-17T05:29:18;101590.00;;;3.81;100.00
21129;BME280;10722;51.910;8.352;2024-03-17T05:32:02;101590.38;;;3.87;100.00
21129;BME280;10722;51.910;8.352;2024-03-17T05:34:46;101585.25;;;3.87;100.00
21129;BME280;10722;51.910;8.352;2024-03-17T05:37:31;101579.16;;;3.85;100.00
21129;BME280;10722;51.910;8.352;2024-03-17T05:40:15;101571.13;;;3.79;100.00
21129;BME280;10722;51.910;8.352;2024-03-17T05:42:59;101567.56;;;3.77;100.00
21129;BME280;10722;51.910;8.352;2024-03-17T05:45:43;101573.69;;;3.79;100.00
21129;BME280;10722;51.910;8.352;2024-03-17T05:48:27;101570.31;;;3.80;100.00
21129;BME280;10722;51.910;8.352;2024-03-17T05:51:12;101571.22;;;3.80;100.00
21129;BME280;10722;51.910;8.352;2024-03-17T05:53:56;101562.22;;;3.72;100.00
21129;BME280;10722;51.910;8.352;2024-03-17T05:56:40;101561.41;;;3.73;100.00
21129;BME280;10722;51.910;8.352;2024-03-17T05:59:24;101555.75;;;3.94;100.00
21129;BME280;10722;51.910;8.352;2024-03-17T06:02:08;101552.50;;;3.96;100.00
21129;BME280;10722;51.910;8.352;2024-03-17T06:04:52;101554.53;;;3.87;100.00
21129;BME280;10722;51.910;8.352;2024-03-17T06:07:37;101545.69;;;3.82;100.00
21129;BME280;10722;51.910;8.352;2024-03-17T06:10:21;101550.81;;;4.12;100.00
21129;BME280;10722;51.910;8.352;2024-03-17T06:13:05;101548.50;;;4.31;100.00
21129;BME280;10722;51.910;8.352;2024-03-17T06:15:49;101542.28;;;4.42;100.00
21129;BME280;10722;51.910;8.352;2024-03-17T06:18:33;101525.78;;;4.37;100.00
21129;BME280;10722;51.910;8.352;2024-03-17T06:21:17;101522.28;;;4.52;100.00
21129;BME280;10722;51.910;8.352;2024-03-17T06:24:01;101505.38;;;4.55;100.00
21129;BME280;10722;51.910;8.352;2024-03-17T06:26:46;101495.31;;;4.27;100.00
21129;BME280;10722;51.910;8.352;2024-03-17T06:29:32;101498.91;;;4.45;100.00
21129;BME280;10722;51.910;8.352;2024-03-17T06:32:17;101502.28;;;4.61;100.00
21129;BME280;10722;51.910;8.352;2024-03-17T06:35:04;101486.69;;;4.41;100.00
21129;BME280;10722;51.910;8.352;2024-03-17T06:37:48;101483.53;;;4.45;100.00
21129;BME280;10722;51.910;8.352;2024-03-17T06:40:32;101478.75;;;4.68;99.96
21129;BME280;10722;51.910;8.352;2024-03-17T06:43:16;101479.72;;;4.86;99.28
21129;BME280;10722;51.910;8.352;2024-03-17T06:46:01;101485.81;;;5.21;98.67
21129;BME280;10722;51.910;8.352;2024-03-17T06:48:45;101455.19;;;5.08;96.97
21129;BME280;10722;51.910;8.352;2024-03-17T06:51:29;101438.28;;;4.95;96.29
21129;BME280;10722;51.910;8.352;2024-03-17T06:54:13;101457.44;;;5.02;96.33
21129;BME280;10722;51.910;8.352;2024-03-17T06:56:57;101441.66;;;5.10;95.26
21129;BME280;10722;51.910;8.352;2024-03-17T06:59:41;101454.78;;;5.51;95.07
21129;BME280;10722;51.910;8.352;2024-03-17T07:02:25;101436.53;;;5.62;93.98
21129;BME280;10722;51.910;8.352;2024-03-17T07:05:13;101426.72;;;5.90;93.21
21129;BME280;10722;51.910;8.352;2024-03-17T07:07:58;101410.34;;;5.88;92.28
21129;BME280;10722;51.910;8.352;2024-03-17T07:10:41;101399.75;;;5.98;92.16
21129;BME280;10722;51.910;8.352;2024-03-17T07:13:28;101373.22;;;6.17;90.67
21129;BME280;10722;51.910;8.352;2024-03-17T07:16:12;101351.41;;;6.46;89.63
21129;BME280;10722;51.910;8.352;2024-03-17T07:18:56;101337.53;;;7.02;88.40
21129;BME280;10722;51.910;8.352;2024-03-17T07:21:40;101317.53;;;6.76;87.13
21129;BME280;10722;51.910;8.352;2024-03-17T07:24:24;101318.97;;;7.53;86.12
21129;BME280;10722;51.910;8.352;2024-03-17T07:27:08;101273.38;;;7.28;84.22
21129;BME280;10722;51.910;8.352;2024-03-17T07:29:52;101290.84;;;7.80;84.13
21129;BME280;10722;51.910;8.352;2024-03-17T07:32:36;101257.41;;;7.81;82.30
21129;BME280;10722;51.910;8.352;2024-03-17T07:35:20;101227.81;;;7.94;81.23
21129;BME280;10722;51.910;8.352;2024-03-17T07:38:04;101210.34;;;7.85;80.45
21129;BME280;10722;51.910;8.352;2024-03-17T07:41:04;101207.34;;;7.99;80.11
21129;BME280;10722;51.910;8.352;2024-03-17T07:43:48;101224.66;;;7.55;80.42
21129;BME280;10722;51.910;8.352;2024-03-17T07:46:32;101221.00;;;7.72;79.98
21129;BME280;10722;51.910;8.352;2024-03-17T07:49:16;101210.53;;;7.45;79.50
21129;BME280;10722;51.910;8.352;2024-03-17T07:52:01;101244.50;;;7.35;80.63
21129;BME280;10722;51.910;8.352;2024-03-17T07:54:45;101257.00;;;7.48;80.24
21129;BME280;10722;51.910;8.352;2024-03-17T07:57:29;101267.03;;;7.63;80.44
21129;BME280;10722;51.910;8.352;2024-03-17T08:00:13;101265.19;;;7.38;80.32
21129;BME280;10722;51.910;8.352;2024-03-17T08:02:57;101273.06;;;7.20;80.53
21129;BME280;10722;51.910;8.352;2024-03-17T08:05:41;101272.28;;;7.44;80.02
21129;BME280;10722;51.910;8.352;2024-03-17T08:08:26;101262.63;;;7.83;79.29
21129;BME280;10722;51.910;8.352;2024-03-17T08:11:10;101259.84;;;8.49;78.27
21129;BME280;10722;51.910;8.352;2024-03-17T08:13:54;101206.13;;;8.88;76.40
21129;BME280;10722;51.910;8.352;2024-03-17T08:16:38;101182.66;;;8.53;75.81
21129;BME280;10722;51.910;8.352;2024-03-17T08:19:22;101184.28;;;9.04;75.29
21129;BME280;10722;51.910;8.352;2024-03-17T08:22:06;101165.63;;;9.14;74.35
21129;BME280;10722;51.910;8.352;2024-03-17T08:24:50;101140.56;;;9.69;72.79
21129;BME280;10722;51.910;8.352;2024-03-17T08:27:34;101105.31;;;9.41;71.96
21129;BME280;10722;51.910;8.352;2024-03-17T08:30:18;101145.50;;;9.61;72.51
21129;BME280;10722;51.910;8.352;2024-03-17T08:33:03;101095.56;;;9.31;71.42
21129;BME280;10722;51.910;8.352;2024-03-17T08:38:42;101102.75;;;9.41;70.69
21129;BME280;10722;51.910;8.352;2024-03-17T08:41:26;101115.19;;;9.87;70.29
21129;BME280;10722;51.910;8.352;2024-03-17T08:44:10;101106.28;;;10.43;69.09
21129;BME280;10722;51.910;8.352;2024-03-17T08:46:54;101111.53;;;9.79;70.08
21129;BME280;10722;51.910;8.352;2024-03-17T08:49:38;101103.84;;;9.81;69.52
21129;BME280;10722;51.910;8.352;2024-03-17T08:52:22;101140.72;;;10.40;69.42
21129;BME280;10722;51.910;8.352;2024-03-17T08:55:09;101075.50;;;9.52;68.47
21129;BME280;10722;51.910;8.352;2024-03-17T08:57:53;101149.78;;;9.61;69.74
21129;BME280;10722;51.910;8.352;2024-03-17T09:00:37;101132.19;;;9.79;68.88
21129;BME280;10722;51.910;8.352;2024-03-17T09:03:22;101121.94;;;9.51;68.80
21129;BME280;10722;51.910;8.352;2024-03-17T09:06:16;101129.72;;;9.22;69.20
21129;BME280;10722;51.910;8.352;2024-03-17T09:09:00;101162.00;;;9.67;69.10
21129;BME280;10722;51.910;8.352;2024-03-17T09:11:44;101125.94;;;10.03;67.56
21129;BME280;10722;51.910;8.352;2024-03-17T09:14:29;101101.06;;;10.41;66.52
21129;BME280;10722;51.910;8.352;2024-03-17T09:17:13;101049.84;;;9.92;65.80
21129;BME280;10722;51.910;8.352;2024-03-17T09:19:57;101094.91;;;9.70;66.71
21129;BME280;10722;51.910;8.352;2024-03-17T09:22:41;101104.28;;;9.98;66.72
21129;BME280;10722;51.910;8.352;2024-03-17T09:25:25;101118.50;;;10.48;66.28
21129;BME280;10722;51.910;8.352;2024-03-17T09:28:09;101064.06;;;10.09;65.23
21129;BME280;10722;51.910;8.352;2024-03-17T09:30:54;101063.22;;;10.10;64.95
21129;BME280;10722;51.910;8.352;2024-03-17T09:33:39;101083.69;;;10.36;64.92
21129;BME280;10722;51.910;8.352;2024-03-17T09:36:23;101066.91;;;10.94;63.65
21129;BME280;10722;51.910;8.352;2024-03-17T09:39:07;101070.97;;;11.22;63.51
21129;BME280;10722;51.910;8.352;2024-03-17T09:41:52;101054.84;;;10.94;63.19
21129;BME280;10722;51.910;8.352;2024-03-17T09:44:37;101090.16;;;10.91;64.46
21129;BME280;10722;51.910;8.352;2024-03-17T09:47:24;101076.22;;;10.86;63.83
21129;BME280;10722;51.910;8.352;2024-03-17T09:50:13;101048.16;;;10.27;63.61
21129;BME280;10722;51.910;8.352;2024-03-17T09:52:58;101119.56;;;10.23;65.26
21129;BME280;10722;51.910;8.352;2024-03-17T09:55:42;101088.19;;;10.43;64.51
21129;BME280;10722;51.910;8.352;2024-03-17T09:58:26;101077.16;;;10.89;63.03
21129;BME280;10722;51.910;8.352;2024-03-17T10:01:10;101060.06;;;10.58;63.21
21129;BME280;10722;51.910;8.352;2024-03-17T10:03:54;101084.00;;;10.86;63.64
21129;BME280;10722;51.910;8.352;2024-03-17T10:06:45;101063.47;;;11.36;62.40
21129;BME280;10722;51.910;8.352;2024-03-17T10:09:29;101113.97;;;12.02;63.01
21129;BME280;10722;51.910;8.352;2024-03-17T10:12:27;101033.41;;;11.44;61.84
21129;BME280;10722;51.910;8.352;2024-03-17T10:15:12;101030.84;;;11.02;61.93
21129;BME280;10722;51.910;8.352;2024-03-17T10:17:56;101025.63;;;10.59;62.62
21129;BME280;10722;51.910;8.352;2024-03-17T10:20:41;101051.66;;;10.67;63.20
21129;BME280;10722;51.910;8.352;2024-03-17T10:23:25;101057.44;;;10.94;62.94
21129;BME280;10722;51.910;8.352;2024-03-17T10:26:14;101005.69;;;10.55;62.59
21129;BME280;10722;51.910;8.352;2024-03-17T10:28:58;101038.16;;;10.80;62.46
21129;BME280;10722;51.910;8.352;2024-03-17T10:31:43;101050.94;;;11.15;62.70
21129;BME280;10722;51.910;8.352;2024-03-17T10:34:27;101030.94;;;11.97;61.28
21129;BME280;10722;51.910;8.352;2024-03-17T10:37:15;100977.28;;;12.52;58.90
21129;BME280;10722;51.910;8.352;2024-03-17T10:40:00;100973.25;;;11.62;58.93
21129;BME280;10722;51.910;8.352;2024-03-17T10:42:46;101023.03;;;11.44;59.76
21129;BME280;10722;51.910;8.352;2024-03-17T10:45:32;101035.50;;;11.63;59.87
21129;BME280;10722;51.910;8.352;2024-03-17T10:48:19;101034.97;;;11.83;59.52
21129;BME280;10722;51.910;8.352;2024-03-17T10:51:04;100997.78;;;11.82;58.75
21129;BME280;10722;51.910;8.352;2024-03-17T10:53:49;101015.38;;;11.97;58.66
21129;BME280;10722;51.910;8.352;2024-03-17T10:56:34;100981.63;;;12.55;57.15
21129;BME280;10722;51.910;8.352;2024-03-17T10:59:28;100979.31;;;12.78;56.69
21129;BME280;10722;51.910;8.352;2024-03-17T11:02:23;100991.97;;;12.52;57.24
21129;BME280;10722;51.910;8.352;2024-03-17T11:05:13;100954.84;;;12.57;55.93
21129;BME280;10722;51.910;8.352;2024-03-17T11:07:58;100958.63;;;12.17;56.24
21129;BME280;10722;51.910;8.352;2024-03-17T11:10:51;100980.50;;;11.80;56.79
21129;BME280;10722;51.910;8.352;2024-03-17T11:13:35;100986.31;;;11.66;57.53
21129;BME280;10722;51.910;8.352;2024-03-17T11:16:26;100979.31;;;11.62;56.83
21129;BME280;10722;51.910;8.352;2024-03-17T11:19:15;100989.97;;;11.79;57.55
21129;BME280;10722;51.910;8.352;2024-03-17T11:29:03;100919.06;;;12.30;54.87
21129;BME280;10722;51.910;8.352;2024-03-17T11:34:30;100962.81;;;12.71;55.62
21129;BME280;10722;51.910;8.352;2024-03-17T11:37:41;100957.91;;;12.93;55.11
21129;BME280;10722;51.910;8.352;2024-03-17T11:40:25;100995.00;;;13.60;55.73
21129;BME280;10722;51.910;8.352;2024-03-17T11:43:16;100948.53;;;14.00;53.81
21129;BME280;10722;51.910;8.352;2024-03-17T11:46:01;100919.78;;;13.82;53.49
21129;BME280;10722;51.910;8.352;2024-03-17T11:48:45;100951.31;;;13.24;54.78
21129;BME280;10722;51.910;8.352;2024-03-17T11:51:34;100940.56;;;13.80;53.59
21129;BME280;10722;51.910;8.352;2024-03-17T11:54:20;100902.25;;;12.71;53.83
21129;BME280;10722;51.910;8.352;2024-03-17T11:59:51;100946.78;;;11.81;56.02
21129;BME280;10722;51.910;8.352;2024-03-17T12:02:35;100979.03;;;12.53;55.73
21129;BME280;10722;51.910;8.352;2024-03-17T12:05:19;100940.75;;;12.39;55.41
21129;BME280;10722;51.910;8.352;2024-03-17T12:08:04;100994.97;;;12.20;57.37
21129;BME280;10722;51.910;8.352;2024-03-17T12:10:48;101009.66;;;12.81;56.61
21129;BME280;10722;51.910;8.352;2024-03-17T12:13:33;100984.53;;;12.78;55.86
21129;BME280;10722;51.910;8.352;2024-03-17T12:16:18;100952.44;;;12.70;55.33
21129;BME280;10722;51.910;8.352;2024-03-17T12:19:07;100961.91;;;12.69;55.47
21129;BME280;10722;51.910;8.352;2024-03-17T12:21:54;100919.94;;;13.06;53.86
21129;BME280;10722;51.910;8.352;2024-03-17T12:24:39;100903.56;;;13.13;53.19
21129;BME280;10722;51.910;8.352;2024-03-17T12:27:25;100962.69;;;13.32;54.79
21129;BME280;10722;51.910;8.352;2024-03-17T12:30:10;100908.63;;;13.00;53.79
21129;BME280;10722;51.910;8.352;2024-03-17T12:32:55;100915.38;;;12.16;54.88
21129;BME280;10722;51.910;8.352;2024-03-17T12:35:40;100917.28;;;12.29;54.48
21129;BME280;10722;51.910;8.352;2024-03-17T12:38:24;100940.63;;;12.29;55.32
21129;BME280;10722;51.910;8.352;2024-03-17T12:41:16;100941.66;;;12.41;55.21
21129;BME280;10722;51.910;8.352;2024-03-17T12:44:01;100931.38;;;12.48;55.07
21129;BME280;10722;51.910;8.352;2024-03-17T12:46:46;100922.59;;;12.37;54.83
21129;BME280;10722;51.910;8.352;2024-03-17T12:49:32;100984.72;;;12.29;56.60
21129;BME280;10722;51.910;8.352;2024-03-17T12:52:24;100952.44;;;12.10;56.55
21129;BME280;10722;51.910;8.352;2024-03-17T12:55:09;100932.16;;;11.85;56.10
21129;BME280;10722;51.910;8.352;2024-03-17T13:01:07;100937.69;;;12.67;54.97
21129;BME280;10722;51.910;8.352;2024-03-17T13:03:51;100974.81;;;12.62;56.10
21129;BME280;10722;51.910;8.352;2024-03-17T13:06:36;100951.47;;;12.62;55.57
21129;BME280;10722;51.910;8.352;2024-03-17T13:09:20;100936.56;;;12.48;55.43
21129;BME280;10722;51.910;8.352;2024-03-17T13:12:14;100920.44;;;12.05;55.65
21129;BME280;10722;51.910;8.352;2024-03-17T13:14:58;100954.63;;;11.84;57.05
21129;BME280;10722;51.910;8.352;2024-03-17T13:17:45;100939.72;;;11.71;57.16
21129;BME280;10722;51.910;8.352;2024-03-17T13:20:31;100948.00;;;12.00;57.02
21129;BME280;10722;51.910;8.352;2024-03-17T13:23:16;100920.63;;;12.19;55.90
21129;BME280;10722;51.910;8.352;2024-03-17T13:26:00;100892.69;;;12.01;55.82
21129;BME280;10722;51.910;8.352;2024-03-17T13:28:44;100910.13;;;12.13;56.29
21129;BME280;10722;51.910;8.352;2024-03-17T13:31:28;100947.28;;;12.10;57.68
21129;BME280;10722;51.910;8.352;2024-03-17T13:34:12;100948.28;;;12.22;57.44
21129;BME280;10722;51.910;8.352;2024-03-17T13:36:56;100895.59;;;12.23;55.89
21129;BME280;10722;51.910;8.352;2024-03-17T13:39:40;100905.81;;;12.12;56.73
21129;BME280;10722;51.910;8.352;2024-03-17T13:42:24;100909.81;;;11.90;56.93
21129;BME280;10722;51.910;8.352;2024-03-17T13:45:10;100941.03;;;11.98;57.34
21129;BME280;10722;51.910;8.352;2024-03-17T13:47:57;100906.94;;;12.32;56.37
21129;BME280;10722;51.910;8.352;2024-03-17T13:50:41;100908.09;;;12.54;56.26
21129;BME280;10722;51.910;8.352;2024-03-17T13:53:25;100894.38;;;12.65;56.24
21129;BME280;10722;51.910;8.352;2024-03-17T13:56:10;100905.50;;;12.53;56.47
21129;BME280;10722;51.910;8.352;2024-03-17T13:58:54;100886.44;;;12.52;56.27
21129;BME280;10722;51.910;8.352;2024-03-17T14:01:38;100893.63;;;12.75;56.02
21129;BME280;10722;51.910;8.352;2024-03-17T14:04:22;100851.97;;;12.63;55.03
21129;BME280;10722;51.910;8.352;2024-03-17T14:07:06;100879.75;;;12.70;56.01
21129;BME280;10722;51.910;8.352;2024-03-17T14:09:50;100893.25;;;12.44;56.86
21129;BME280;10722;51.910;8.352;2024-03-17T14:12:35;100897.72;;;12.54;56.68
21129;BME280;10722;51.910;8.352;2024-03-17T14:15:19;100870.16;;;12.64;55.88
21129;BME280;10722;51.910;8.352;2024-03-17T14:18:03;100888.63;;;12.90;56.45
21129;BME280;10722;51.910;8.352;2024-03-17T14:20:48;100856.53;;;12.85;55.56
21129;BME280;10722;51.910;8.352;2024-03-17T14:23:32;100851.38;;;12.88;55.86
21129;BME280;10722;51.910;8.352;2024-03-17T14:26:16;100850.41;;;12.78;55.69
21129;BME280;10722;51.910;8.352;2024-03-17T14:29:03;100860.88;;;12.88;55.98
21129;BME280;10722;51.910;8.352;2024-03-17T14:31:47;100857.47;;;12.95;56.20
21129;BME280;10722;51.910;8.352;2024-03-17T14:34:31;100829.69;;;12.82;55.82
21129;BME280;10722;51.910;8.352;2024-03-17T14:37:15;100843.59;;;12.91;55.84
21129;BME280;10722;51.910;8.352;2024-03-17T14:40:00;100822.63;;;12.70;55.68
21129;BME280;10722;51.910;8.352;2024-03-17T14:42:44;100824.50;;;12.86;55.37
21129;BME280;10722;51.910;8.352;2024-03-17T14:45:28;100821.88;;;12.83;55.67